Time;durP1;ratioP1;P1;durP2;ratioP2;P2;SDS_P1;SDS_P2;PMS_P1;PMS_P2;Temp;Humidity;BMP_temperature;BMP_pressure;BME280_temperature;BME280_humidity;BME280_pressure;Samples;Min_cycle;Max_cycle;Signal;HPM_P1;HPM_P2
2022/08/05 03:01:19;;;;;;;1.65;1.55;;;31.50;35.00;;;;;;5431433;23;45879;-64
2022/08/05 03:03:47;;;;;;;1.88;1.45;;;31.50;35.00;;;;;;4864611;29;46228;-64
2022/08/05 03:06:13;;;;;;;2.85;1.60;;;31.50;35.00;;;;;;4877950;29;45432;-63
2022/08/05 03:08:39;;;;;;;4.05;1.60;;;31.50;35.00;;;;;;4881722;29;45413;-64
2022/08/05 03:11:19;;;;;;;1.65;1.55;;;31.50;35.00;;;;;;4882285;29;45322;-64
2022/08/05 03:13:45;;;;;;;1.63;1.52;;;31.50;35.20;;;;;;4881931;29;45567;-64
2022/08/05 03:16:10;;;;;;;2.78;1.73;;;31.40;35.10;;;;;;4880840;29;45381;-64
2022/08/05 03:18:36;;;;;;;3.78;1.50;;;31.40;35.10;;;;;;4874729;29;46429;-64
2022/08/05 03:21:01;;;;;;;1.67;1.50;;;31.40;35.10;;;;;;4880516;29;45990;-63
2022/08/05 03:23:27;;;;;;;3.35;1.42;;;31.40;35.10;;;;;;4884613;29;44603;-63
2022/08/05 03:25:52;;;;;;;2.53;1.35;;;31.40;35.10;;;;;;4882896;29;45380;-63
2022/08/05 03:28:18;;;;;;;1.58;1.48;;;31.40;35.10;;;;;;4864791;29;45189;-64
2022/08/05 03:30:43;;;;;;;1.80;1.70;;;31.40;35.10;;;;;;4882163;29;46104;-63
2022/08/05 03:33:09;;;;;;;1.98;1.55;;;31.40;35.10;;;;;;4863306;29;44924;-64
2022/08/05 03:35:34;;;;;;;2.72;1.70;;;31.40;35.20;;;;;;4897301;28;45386;-64
2022/08/05 03:38:01;;;;;;;1.50;1.40;;;31.40;35.10;;;;;;4849653;29;44837;-64
2022/08/05 03:40:27;;;;;;;2.05;1.70;;;31.40;35.20;;;;;;4880087;29;46910;-63
2022/08/05 03:42:52;;;;;;;2.88;1.88;;;31.40;35.20;;;;;;4880090;29;45337;-64
2022/08/05 03:45:18;;;;;;;3.05;1.80;;;31.40;35.20;;;;;;4883199;29;44702;-64
2022/08/05 03:47:44;;;;;;;1.80;1.70;;;31.40;35.20;;;;;;4879048;29;44753;-63
2022/08/05 03:50:09;;;;;;;7.15;1.92;;;31.40;35.30;;;;;;4882621;29;45279;-63
2022/08/05 03:52:41;;;;;;;1.95;1.60;;;31.40;35.20;;;;;;4880719;29;45240;-64
2022/08/05 03:55:09;;;;;;;1.70;1.60;;;31.40;35.30;;;;;;4865550;29;45726;-64
2022/08/05 03:57:35;;;;;;;2.72;2.22;;;31.40;35.30;;;;;;4880525;29;45288;-63
2022/08/05 04:00:06;;;;;;;1.42;1.30;;;31.40;35.30;;;;;;4880727;29;46004;-63
2022/08/05 04:02:32;;;;;;;2.35;1.52;;;31.40;35.40;;;;;;4891208;28;45869;-64
2022/08/05 04:04:58;;;;;;;1.80;1.70;;;31.40;35.40;;;;;;4881447;29;45272;-63
2022/08/05 04:07:24;;;;;;;1.58;1.42;;;31.40;35.40;;;;;;4882739;29;45556;-63
2022/08/05 04:09:49;;;;;;;3.15;1.52;;;31.40;35.40;;;;;;4897017;29;45977;-63
2022/08/05 04:12:15;;;;;;;1.55;1.45;;;31.40;35.40;;;;;;4859425;29;45186;-63
2022/08/05 04:14:41;;;;;;;3.42;1.60;;;31.40;35.40;;;;;;4880125;29;45371;-63
2022/08/05 04:17:07;;;;;;;2.92;1.80;;;31.40;35.40;;;;;;4880878;29;45503;-63
2022/08/05 04:19:40;;;;;;;1.65;1.55;;;31.40;35.90;;;;;;4879931;29;46222;-63
2022/08/05 04:22:06;;;;;;;2.00;1.80;;;31.40;35.50;;;;;;4876848;29;44884;-63
2022/08/05 04:24:31;;;;;;;2.78;1.80;;;31.40;35.50;;;;;;4882303;29;45162;-63
2022/08/05 04:26:57;;;;;;;2.53;1.70;;;31.40;35.40;;;;;;4881801;29;44811;-64
2022/08/05 04:29:22;;;;;;;3.63;1.50;;;31.40;35.40;;;;;;4880052;29;45971;-64
2022/08/05 04:31:48;;;;;;;1.83;1.52;;;31.40;35.40;;;;;;4879003;29;45459;-63
2022/08/05 04:34:13;;;;;;;1.95;1.63;;;31.40;35.50;;;;;;4876606;29;45475;-63
2022/08/05 04:36:39;;;;;;;2.83;1.63;;;31.40;35.50;;;;;;4879391;29;46347;-64
2022/08/05 04:39:04;;;;;;;2.05;1.83;;;31.40;35.50;;;;;;4880989;29;46382;-63
2022/08/05 04:41:30;;;;;;;2.70;1.75;;;31.30;35.40;;;;;;4882276;29;45004;-63
2022/08/05 04:43:56;;;;;;;1.50;1.40;;;31.40;35.50;;;;;;4882219;29;46217;-63
2022/08/05 04:46:22;;;;;;;1.73;1.60;;;31.40;35.50;;;;;;4879172;29;45501;-63
2022/08/05 04:48:48;;;;;;;1.85;1.75;;;31.40;35.50;;;;;;4880182;29;46570;-63
2022/08/05 04:51:13;;;;;;;2.75;1.35;;;31.40;35.50;;;;;;4882222;29;44999;-63
2022/08/05 04:53:39;;;;;;;1.33;1.23;;;31.40;35.60;;;;;;4880181;29;45405;-64
2022/08/05 04:56:08;;;;;;;2.38;1.63;;;31.40;35.50;;;;;;4879164;29;45275;-63
2022/08/05 04:58:33;;;;;;;1.80;1.60;;;31.40;35.50;;;;;;4881487;29;45389;-64
2022/08/05 05:00:59;;;;;;;1.40;1.30;;;31.40;35.50;;;;;;4878126;29;45757;-63
2022/08/05 05:03:24;;;;;;;2.55;1.75;;;31.40;35.50;;;;;;4877139;29;45586;-63
2022/08/05 05:05:50;;;;;;;2.28;1.60;;;31.40;35.50;;;;;;4878549;29;44679;-64
2022/08/05 05:08:15;;;;;;;2.03;1.30;;;31.40;35.50;;;;;;4881233;29;45349;-63
2022/08/05 05:10:43;;;;;;;1.25;1.15;;;31.40;35.40;;;;;;4879195;29;45536;-63
2022/08/05 05:13:16;;;;;;;1.85;1.70;;;31.40;35.50;;;;;;4880920;29;45345;-64
2022/08/05 05:15:42;;;;;;;4.03;1.60;;;31.30;35.40;;;;;;4881359;29;45186;-63
2022/08/05 05:18:08;;;;;;;1.95;1.80;;;31.30;35.40;;;;;;4883078;29;45289;-63
2022/08/05 05:20:33;;;;;;;2.60;1.50;;;31.30;35.40;;;;;;4880833;29;45379;-63
2022/08/05 05:23:00;;;;;;;3.80;1.60;;;31.30;35.40;;;;;;4883838;29;45372;-63
2022/08/05 05:25:26;;;;;;;2.60;1.70;;;31.40;35.40;;;;;;4880317;29;45452;-63
2022/08/05 05:27:51;;;;;;;2.10;1.90;;;31.90;34.60;;;;;;4872251;29;45896;-64
2022/08/05 05:30:17;;;;;;;2.75;1.42;;;32.40;33.80;;;;;;4878155;29;45445;-63
2022/08/05 05:32:43;;;;;;;3.28;1.50;;;32.60;33.40;;;;;;4878691;29;45368;-63
2022/08/05 05:35:09;;;;;;;1.17;1.10;;;32.50;33.50;;;;;;4866882;29;45457;-63
2022/08/05 05:37:51;;;;;;;2.58;1.60;;;32.20;33.90;;;;;;4876267;29;45980;-63
2022/08/05 05:40:18;;;;;;;1.85;1.52;;;31.90;34.40;;;;;;4874095;29;45309;-63
2022/08/05 05:42:45;;;;;;;3.35;1.30;;;31.80;34.80;;;;;;4872774;29;45386;-63
2022/08/05 05:45:10;;;;;;;1.67;1.38;;;31.60;34.90;;;;;;4872778;29;45637;-63
2022/08/05 05:47:36;;;;;;;2.90;1.30;;;31.60;35.20;;;;;;4873813;29;45962;-63
2022/08/05 05:50:01;;;;;;;3.00;1.30;;;31.50;35.30;;;;;;4876874;29;46992;-63
2022/08/05 05:52:28;;;;;;;3.30;1.35;;;31.50;35.40;;;;;;4874665;29;45325;-63
2022/08/05 05:54:53;;;;;;;3.95;1.52;;;31.40;35.40;;;;;;4877911;29;45412;-63
2022/08/05 05:57:19;;;;;;;2.70;1.38;;;31.50;35.50;;;;;;4879834;29;45950;-63
2022/08/05 05:59:45;;;;;;;1.70;1.30;;;31.40;35.50;;;;;;4876988;29;45420;-63
2022/08/05 06:02:10;;;;;;;1.70;1.55;;;31.40;35.60;;;;;;4857193;29;44903;-63
2022/08/05 06:04:36;;;;;;;2.65;1.40;;;31.40;35.60;;;;;;4877044;29;45132;-63
2022/08/05 06:07:01;;;;;;;1.67;1.58;;;31.40;35.80;;;;;;4876602;29;46150;-63
2022/08/05 06:09:27;;;;;;;1.60;1.45;;;31.40;35.80;;;;;;4878385;29;45554;-63
2022/08/05 06:11:53;;;;;;;4.18;1.73;;;31.40;35.90;;;;;;4877674;29;45489;-62
2022/08/05 06:14:18;;;;;;;2.28;1.85;;;31.40;36.00;;;;;;4891566;28;45873;-62
2022/08/05 06:16:44;;;;;;;3.05;1.75;;;31.40;36.10;;;;;;4857736;29;46882;-62
2022/08/05 06:19:09;;;;;;;2.97;2.00;;;31.40;36.20;;;;;;4872918;29;45907;-62
2022/08/05 06:21:36;;;;;;;3.95;1.90;;;31.40;36.30;;;;;;4876248;29;45368;-62
2022/08/05 06:24:01;;;;;;;6.90;1.60;;;31.40;36.30;;;;;;4877757;29;45583;-62
2022/08/05 06:26:27;;;;;;;2.08;1.75;;;31.30;36.40;;;;;;4878409;29;45648;-62
2022/08/05 06:28:52;;;;;;;2.72;1.77;;;31.30;36.40;;;;;;4876186;28;45002;-62
2022/08/05 06:31:18;;;;;;;1.98;1.40;;;31.30;36.50;;;;;;4875009;29;45240;-62
2022/08/05 06:33:43;;;;;;;1.83;1.55;;;31.30;36.50;;;;;;4875298;29;44983;-62
2022/08/05 06:36:09;;;;;;;1.52;1.40;;;31.30;36.60;;;;;;4876371;29;48025;-62
2022/08/05 06:38:35;;;;;;;2.63;1.88;;;31.30;36.60;;;;;;4878503;29;45209;-62
2022/08/05 06:41:00;;;;;;;2.00;1.60;;;31.30;36.70;;;;;;4861426;29;44917;-62
2022/08/05 06:43:26;;;;;;;2.67;1.55;;;31.40;36.70;;;;;;4876207;29;45258;-62
2022/08/05 06:45:51;;;;;;;2.47;1.63;;;31.30;36.70;;;;;;4878227;29;46781;-62
2022/08/05 06:48:17;;;;;;;4.18;1.65;;;31.30;36.90;;;;;;4877188;29;45559;-62
2022/08/05 06:50:42;;;;;;;4.68;2.10;;;31.40;36.90;;;;;;4875862;29;45315;-62
2022/08/05 06:53:08;;;;;;;4.53;1.77;;;31.40;37.50;;;;;;4891526;28;45128;-62
2022/08/05 06:55:34;;;;;;;3.35;1.92;;;31.40;36.80;;;;;;4875485;29;45050;-63
2022/08/05 06:57:59;;;;;;;2.35;1.67;;;31.50;36.80;;;;;;4878366;29;45304;-62
2022/08/05 07:00:25;;;;;;;2.85;1.90;;;31.50;36.80;;;;;;4873218;29;45382;-62
2022/08/05 07:02:50;;;;;;;3.45;1.70;;;31.50;36.80;;;;;;4875129;29;45364;-62
2022/08/05 07:05:16;;;;;;;3.15;1.70;;;31.50;36.90;;;;;;4875524;29;45894;-62
2022/08/05 07:07:43;;;;;;;3.80;1.58;;;31.60;36.90;;;;;;4873670;29;45165;-62
2022/08/05 07:10:09;;;;;;;1.90;1.67;;;31.60;36.90;;;;;;4876172;29;45313;-62
2022/08/05 07:18:04;;;;;;;3.22;1.90;;;31.60;36.90;;;;;;4887175;29;45504;-62
2022/08/05 07:20:29;;;;;;;1.88;1.65;;;31.60;37.60;;;;;;4860868;29;45373;-63
2022/08/05 07:22:55;;;;;;;3.30;1.73;;;31.60;37.00;;;;;;4873501;29;45415;-62
2022/08/05 07:25:20;;;;;;;3.67;1.80;;;31.60;37.10;;;;;;4875913;29;45256;-62
2022/08/05 07:27:47;;;;;;;3.22;1.67;;;31.60;37.10;;;;;;4876173;29;45203;-62
2022/08/05 07:30:13;;;;;;;3.75;1.20;;;31.60;37.10;;;;;;4876305;29;45269;-63
2022/08/05 07:32:38;;;;;;;2.63;1.70;;;31.60;37.10;;;;;;4873460;29;45773;-62
2022/08/05 07:35:08;;;;;;;2.05;1.50;;;31.70;37.20;;;;;;4878833;29;45492;-62
2022/08/05 07:37:33;;;;;;;2.40;1.45;;;31.60;37.20;;;;;;4877783;29;45810;-62
2022/08/05 07:39:59;;;;;;;2.50;1.45;;;31.70;37.20;;;;;;4877152;29;45357;-62
2022/08/05 07:42:24;;;;;;;6.22;1.88;;;31.70;37.20;;;;;;4868327;29;45428;-62
2022/08/05 07:44:50;;;;;;;2.20;1.45;;;31.70;37.10;;;;;;4871050;29;45216;-62
2022/08/05 07:47:15;;;;;;;2.08;1.38;;;31.70;37.20;;;;;;4872670;29;45358;-62
2022/08/05 07:49:41;;;;;;;1.92;1.33;;;31.70;37.20;;;;;;4873264;29;45999;-62
2022/08/05 07:52:06;;;;;;;2.95;1.83;;;31.70;37.10;;;;;;4871587;29;45706;-62
2022/08/05 07:54:32;;;;;;;4.53;1.67;;;31.70;37.20;;;;;;4871880;29;46138;-62
2022/08/05 07:56:58;;;;;;;2.35;1.60;;;31.80;37.20;;;;;;4874330;29;45641;-62
2022/08/05 07:59:23;;;;;;;1.33;1.23;;;31.70;37.30;;;;;;4873597;29;45280;-63
2022/08/05 08:01:49;;;;;;;3.00;1.58;;;31.80;37.40;;;;;;4872097;29;45680;-62
2022/08/05 08:04:14;;;;;;;3.47;1.45;;;31.80;37.30;;;;;;4871953;29;45622;-62
2022/08/05 08:06:40;;;;;;;1.88;1.35;;;31.80;37.30;;;;;;4871713;29;46062;-62
2022/08/05 08:09:05;;;;;;;2.00;1.60;;;31.80;37.30;;;;;;4869166;29;45232;-63
2022/08/05 08:11:31;;;;;;;4.50;1.38;;;31.80;37.30;;;;;;4873280;29;44918;-63
2022/08/05 08:13:57;;;;;;;3.13;1.50;;;31.80;37.30;;;;;;4871950;29;45227;-63
2022/08/05 08:16:23;;;;;;;2.65;1.50;;;31.80;37.30;;;;;;4871223;29;45314;-63
2022/08/05 08:18:48;;;;;;;1.90;1.58;;;31.80;37.30;;;;;;4871530;29;45374;-63
2022/08/05 08:21:14;;;;;;;3.90;1.85;;;31.80;37.30;;;;;;4873693;29;45441;-63
2022/08/05 08:23:40;;;;;;;3.55;1.77;;;31.80;37.30;;;;;;4873445;29;45387;-63
2022/08/05 08:26:06;;;;;;;3.53;1.77;;;31.90;37.30;;;;;;4870045;29;45459;-63
2022/08/05 08:28:32;;;;;;;2.88;1.98;;;31.90;37.30;;;;;;4870570;29;45568;-63
2022/08/05 08:30:57;;;;;;;3.38;1.83;;;31.90;37.90;;;;;;4855728;29;45055;-63
2022/08/05 08:33:23;;;;;;;2.13;1.58;;;31.90;37.20;;;;;;4869300;29;46115;-63
2022/08/05 08:35:48;;;;;;;3.53;1.60;;;31.90;37.30;;;;;;4869884;29;45489;-63
2022/08/05 08:38:15;;;;;;;3.35;1.80;;;31.90;37.20;;;;;;4872313;29;45440;-63
2022/08/05 08:40:41;;;;;;;3.72;1.80;;;31.90;37.20;;;;;;4874003;29;45028;-63
2022/08/05 08:43:07;;;;;;;2.22;1.85;;;31.90;37.20;;;;;;4854112;29;45985;-63
2022/08/05 08:45:34;;;;;;;2.13;1.80;;;31.90;37.20;;;;;;4871083;29;45240;-63
2022/08/05 08:48:01;;;;;;;2.38;1.80;;;32.00;37.20;;;;;;4855429;29;45595;-63
2022/08/05 08:50:27;;;;;;;2.70;1.63;;;32.00;37.20;;;;;;4857035;29;44829;-62
2022/08/05 08:52:53;;;;;;;4.20;1.70;;;32.00;37.80;;;;;;4855210;29;45484;-62
2022/08/05 08:55:19;;;;;;;2.92;1.58;;;32.00;37.20;;;;;;4873223;29;45309;-63
2022/08/05 08:57:48;;;;;;;2.92;1.55;;;32.00;37.20;;;;;;4854638;29;45091;-62
2022/08/05 09:00:13;;;;;;;2.42;1.90;;;32.00;37.20;;;;;;4853005;29;45631;-62
2022/08/05 09:02:39;;;;;;;1.65;1.30;;;32.00;37.20;;;;;;4875242;29;45296;-62
2022/08/05 09:05:05;;;;;;;3.20;1.60;;;32.00;37.20;;;;;;4875423;29;45436;-63
2022/08/05 09:07:30;;;;;;;3.83;1.52;;;32.00;37.20;;;;;;4874641;29;44912;-62
2022/08/05 09:09:56;;;;;;;4.60;1.83;;;32.00;37.20;;;;;;4878361;29;45162;-62
2022/08/05 09:12:22;;;;;;;4.78;1.63;;;32.00;37.20;;;;;;4877616;29;45550;-63
2022/08/05 09:14:47;;;;;;;4.00;1.70;;;32.10;37.20;;;;;;4875883;29;45541;-62
2022/08/05 09:17:13;;;;;;;3.22;1.70;;;32.10;37.10;;;;;;4879240;29;45327;-62
2022/08/05 09:19:39;;;;;;;2.58;1.60;;;32.00;37.00;;;;;;4876578;29;45297;-62
2022/08/05 09:22:04;;;;;;;2.65;1.90;;;32.00;37.00;;;;;;4875535;29;44935;-62
2022/08/05 09:24:30;;;;;;;3.65;1.50;;;32.00;37.00;;;;;;4878980;29;45198;-62
2022/08/05 09:26:56;;;;;;;4.85;1.70;;;32.10;36.90;;;;;;4882660;29;45189;-62
2022/08/05 09:29:41;;;;;;;2.35;1.85;;;32.10;36.90;;;;;;4878101;29;45302;-62
2022/08/05 09:32:07;;;;;;;2.10;1.50;;;32.10;36.80;;;;;;4879914;29;46318;-63
2022/08/05 09:34:53;;;;;;;2.72;1.45;;;32.10;36.80;;;;;;4879144;29;45292;-63
2022/08/05 09:37:24;;;;;;;3.80;1.30;;;32.10;36.50;;;;;;4891820;28;45682;-63
2022/08/05 09:39:50;;;;;;;1.95;1.40;;;32.10;36.50;;;;;;4875495;29;45387;-63
2022/08/05 09:42:17;;;;;;;1.63;1.25;;;32.20;36.40;;;;;;4878329;29;45914;-63
2022/08/05 09:44:47;;;;;;;1.58;1.33;;;32.20;36.20;;;;;;4878748;29;44804;-63
2022/08/05 09:47:14;;;;;;;2.15;1.35;;;32.20;36.20;;;;;;4877440;29;45497;-63
2022/08/05 09:49:44;;;;;;;3.03;1.58;;;32.20;36.10;;;;;;4879135;29;46044;-63
2022/08/05 09:52:17;;;;;;;1.63;1.38;;;32.20;36.00;;;;;;4873884;29;46109;-63
2022/08/05 09:55:04;;;;;;;2.28;1.40;;;32.20;35.70;;;;;;4871323;29;45937;-63
2022/08/05 09:57:30;;;;;;;2.75;1.30;;;32.20;35.70;;;;;;4873922;29;45454;-62
2022/08/05 09:59:58;;;;;;;1.70;1.58;;;32.20;35.70;;;;;;4872220;29;45183;-62
2022/08/05 10:02:37;;;;;;;1.92;1.23;;;32.20;35.70;;;;;;4872575;29;45583;-62
2022/08/05 10:05:11;;;;;;;2.20;1.50;;;32.30;35.60;;;;;;4888126;28;45326;-62
2022/08/05 10:07:48;;;;;;;1.90;1.27;;;32.30;35.50;;;;;;4874834;29;45626;-62
2022/08/05 10:10:14;;;;;;;1.40;1.30;;;32.30;35.40;;;;;;4879524;29;45291;-62
2022/08/05 10:12:53;;;;;;;1.80;1.33;;;32.30;35.50;;;;;;4872564;29;46368;-62
2022/08/05 10:15:20;;;;;;;2.22;1.30;;;32.30;35.90;;;;;;4876199;29;45695;-63
2022/08/05 10:18:12;;;;;;;1.73;1.42;;;32.40;35.40;;;;;;4873220;29;45374;-62
2022/08/05 10:21:08;;;;;;;2.58;1.38;;;32.40;35.10;;;;;;4876156;29;45242;-62
2022/08/05 10:23:35;;;;;;;1.45;1.10;;;32.40;35.20;;;;;;4869482;29;47279;-62
2022/08/05 10:26:06;;;;;;;1.73;1.20;;;32.40;35.20;;;;;;4875054;29;45229;-63
2022/08/05 10:28:32;;;;;;;5.13;1.50;;;32.40;35.10;;;;;;4876679;29;45474;-62
2022/08/05 10:30:58;;;;;;;2.45;1.27;;;32.50;35.00;;;;;;4877853;28;45313;-62
2022/08/05 10:33:26;;;;;;;1.30;1.20;;;32.50;34.90;;;;;;4874530;29;45974;-61
2022/08/05 10:35:52;;;;;;;1.55;1.13;;;32.50;34.90;;;;;;4881844;29;45450;-63
2022/08/05 10:38:19;;;;;;;2.63;1.20;;;32.50;35.20;;;;;;4878104;29;45723;-62
2022/08/05 10:40:53;;;;;;;2.78;1.00;;;32.50;34.80;;;;;;4875949;29;46231;-62
2022/08/05 10:43:40;;;;;;;1.05;0.90;;;32.50;34.50;;;;;;4865385;29;47787;-63
2022/08/05 10:46:10;;;;;;;0.95;0.93;;;32.50;34.20;;;;;;4879650;29;45285;-63
2022/08/05 10:48:42;;;;;;;1.42;1.15;;;32.50;34.50;;;;;;4877580;29;46462;-63
2022/08/05 10:51:13;;;;;;;1.20;0.97;;;32.50;34.40;;;;;;4874412;29;45828;-63
2022/08/05 10:53:54;;;;;;;1.40;1.27;;;32.50;34.30;;;;;;4878910;29;46022;-63
2022/08/05 10:56:24;;;;;;;1.48;1.05;;;32.60;34.40;;;;;;4879507;29;44694;-63
2022/08/05 10:58:52;;;;;;;1.23;1.00;;;32.60;34.40;;;;;;4878025;29;45305;-63
2022/08/05 11:01:34;;;;;;;1.75;1.23;;;32.60;34.40;;;;;;4875929;29;45651;-63
2022/08/05 11:04:11;;;;;;;2.30;1.17;;;32.60;34.10;;;;;;4873258;29;46760;-63
2022/08/05 11:07:05;;;;;;;1.23;0.90;;;32.60;34.00;;;;;;4870348;29;45599;-63
2022/08/05 11:09:39;;;;;;;2.35;1.38;;;32.60;33.80;;;;;;4871894;29;44944;-63
2022/08/05 11:12:07;;;;;;;1.25;1.15;;;32.60;33.90;;;;;;4874076;29;45312;-64
2022/08/05 11:14:36;;;;;;;1.95;1.00;;;32.60;34.10;;;;;;4874058;29;46871;-63
2022/08/05 11:17:23;;;;;;;1.42;1.10;;;32.60;34.10;;;;;;4876486;29;45518;-63
2022/08/05 11:19:48;;;;;;;1.15;0.95;;;32.70;33.80;;;;;;4875765;29;44802;-64
2022/08/05 11:22:36;;;;;;;1.05;0.90;;;32.70;34.10;;;;;;4879652;29;45313;-63
2022/08/05 11:25:30;;;;;;;2.55;1.00;;;32.70;33.70;;;;;;4877843;29;45324;-63
2022/08/05 11:28:11;;;;;;;1.30;1.00;;;32.70;33.50;;;;;;4876405;29;44710;-63
2022/08/05 11:31:01;;;;;;;1.15;0.85;;;32.70;33.60;;;;;;4875304;29;45188;-63
2022/08/05 11:33:36;;;;;;;1.65;0.98;;;32.70;33.50;;;;;;4879681;29;45524;-63
2022/08/05 11:36:05;;;;;;;1.30;0.80;;;32.70;33.80;;;;;;4880413;29;47070;-63
2022/08/05 11:38:43;;;;;;;1.15;0.90;;;32.80;33.80;;;;;;4877973;29;44723;-63
2022/08/05 11:41:17;;;;;;;2.08;1.13;;;32.80;33.60;;;;;;4879239;29;44590;-63
2022/08/05 11:43:59;;;;;;;1.33;1.08;;;32.80;33.50;;;;;;4873146;29;44845;-63
2022/08/05 11:46:31;;;;;;;0.85;0.85;;;32.80;33.30;;;;;;4876754;29;45459;-63
2022/08/05 11:48:57;;;;;;;1.00;0.90;;;32.80;33.60;;;;;;4876813;29;45536;-63
2022/08/05 11:51:23;;;;;;;1.30;1.20;;;32.80;33.70;;;;;;4877827;29;45297;-63
2022/08/05 11:53:48;;;;;;;0.85;0.75;;;32.80;33.60;;;;;;4878306;29;45472;-63
2022/08/05 11:56:14;;;;;;;3.05;1.10;;;32.80;33.70;;;;;;4880646;29;46040;-63
2022/08/05 11:58:44;;;;;;;0.80;0.80;;;32.80;33.70;;;;;;4859922;29;45624;-63
2022/08/05 12:01:12;;;;;;;1.63;1.08;;;32.80;33.80;;;;;;4873812;29;45379;-63
2022/08/05 12:03:50;;;;;;;1.30;1.00;;;32.80;33.70;;;;;;4873644;29;45228;-63
2022/08/05 12:06:16;;;;;;;1.00;1.00;;;32.80;33.40;;;;;;4877800;29;47122;-63
2022/08/05 12:08:42;;;;;;;1.40;0.80;;;32.80;33.70;;;;;;4879352;29;45365;-63
2022/08/05 12:11:08;;;;;;;1.00;0.90;;;32.80;33.60;;;;;;4862479;29;45378;-63
2022/08/05 12:13:34;;;;;;;1.25;0.90;;;32.80;33.60;;;;;;4880906;29;45292;-63
2022/08/05 12:16:00;;;;;;;1.20;0.95;;;32.80;33.50;;;;;;4880984;29;46253;-63
2022/08/05 12:18:32;;;;;;;1.10;0.90;;;32.90;33.60;;;;;;4878272;29;45059;-63
2022/08/05 12:21:08;;;;;;;;;;;32.90;33.30;;;;;;4880790;29;45181;-63
2022/08/05 12:23:33;;;;;;;1.00;0.90;;;32.80;33.10;;;;;;4875410;29;45467;-63
2022/08/05 12:25:59;;;;;;;1.27;1.13;;;32.90;33.50;;;;;;4882092;29;45339;-63
2022/08/05 12:28:34;;;;;;;1.40;0.95;;;32.90;33.50;;;;;;4883266;28;45185;-63
2022/08/05 12:31:00;;;;;;;0.95;0.90;;;32.90;33.30;;;;;;4874096;29;44789;-63
2022/08/05 12:33:26;;;;;;;1.25;1.02;;;32.90;33.40;;;;;;4868539;29;44777;-63
2022/08/05 12:35:52;;;;;;;0.95;0.85;;;32.90;33.40;;;;;;4855168;29;47178;-63
2022/08/05 12:38:18;;;;;;;1.48;1.10;;;32.90;33.50;;;;;;4869864;29;45503;-63
2022/08/05 12:40:43;;;;;;;1.52;1.13;;;32.90;33.40;;;;;;4870317;29;45657;-63
2022/08/05 12:43:09;;;;;;;1.52;0.85;;;33.00;33.40;;;;;;4870379;29;45347;-63
2022/08/05 12:45:35;;;;;;;2.08;1.00;;;33.00;33.30;;;;;;4872039;29;46017;-63
2022/08/05 12:48:13;;;;;;;4.68;0.90;;;33.00;33.20;;;;;;4857436;29;45429;-63
2022/08/05 12:50:38;;;;;;;1.65;0.95;;;33.10;33.00;;;;;;4885029;28;45595;-63
2022/08/05 12:53:04;;;;;;;1.77;1.20;;;33.10;33.10;;;;;;4871863;29;45400;-63
2022/08/05 12:55:30;;;;;;;1.67;0.90;;;33.10;33.00;;;;;;4871526;29;46372;-64
2022/08/05 12:57:56;;;;;;;0.95;0.90;;;33.10;33.00;;;;;;4875421;29;46148;-63
2022/08/05 13:00:23;;;;;;;1.58;0.80;;;33.10;33.00;;;;;;4874426;29;44805;-63
2022/08/05 13:02:49;;;;;;;1.67;1.17;;;33.10;33.00;;;;;;4872523;29;45677;-63
2022/08/05 13:05:15;;;;;;;1.23;1.10;;;33.10;32.90;;;;;;4873301;29;45946;-63
2022/08/05 13:07:41;;;;;;;6.80;1.10;;;33.10;32.90;;;;;;4874866;29;45283;-63
2022/08/05 13:10:11;;;;;;;0.95;0.75;;;33.10;32.90;;;;;;4876855;29;45292;-63
2022/08/05 13:12:40;;;;;;;0.77;0.77;;;33.10;32.80;;;;;;4876629;29;45329;-63
2022/08/05 13:15:08;;;;;;;2.08;1.00;;;33.20;32.80;;;;;;4874635;29;45053;-63
2022/08/05 13:17:34;;;;;;;1.65;1.20;;;33.20;32.80;;;;;;4879858;29;45196;-63
2022/08/05 13:20:07;;;;;;;1.00;0.93;;;33.20;32.80;;;;;;4880547;29;45856;-63
2022/08/05 13:22:37;;;;;;;4.28;0.70;;;33.20;32.70;;;;;;4877358;29;45644;-63
2022/08/05 13:25:05;;;;;;;1.88;1.10;;;33.20;32.80;;;;;;4879371;29;45717;-63
2022/08/05 13:27:41;;;;;;;1.52;1.02;;;33.20;32.70;;;;;;4876760;29;45153;-63
2022/08/05 13:30:09;;;;;;;1.50;1.00;;;33.20;32.30;;;;;;4870219;29;45725;-63
2022/08/05 13:32:34;;;;;;;1.52;1.00;;;33.20;32.40;;;;;;4869134;29;45248;-63
2022/08/05 13:35:00;;;;;;;1.30;0.93;;;33.20;32.30;;;;;;4875735;29;46593;-63
2022/08/05 13:37:25;;;;;;;2.53;0.80;;;33.30;32.30;;;;;;4877500;29;45608;-63
2022/08/05 13:39:54;;;;;;;1.27;0.88;;;33.30;32.30;;;;;;4876678;29;45286;-63
2022/08/05 13:42:20;;;;;;;1.23;1.02;;;33.30;32.20;;;;;;4877811;29;45494;-63
2022/08/05 13:44:46;;;;;;;3.20;0.90;;;33.30;32.30;;;;;;4874798;29;45853;-63
2022/08/05 13:47:12;;;;;;;0.88;0.80;;;33.30;32.30;;;;;;4874899;29;45115;-63
2022/08/05 13:49:38;;;;;;;0.88;0.80;;;33.30;32.30;;;;;;4871859;29;44952;-63
2022/08/05 13:52:33;;;;;;;1.05;0.73;;;33.30;32.40;;;;;;4875876;29;45112;-63
2022/08/05 13:54:59;;;;;;;1.00;0.95;;;33.40;31.80;;;;;;4868936;29;45676;-63
2022/08/05 13:57:24;;;;;;;2.15;0.82;;;33.30;32.30;;;;;;4877580;29;44996;-63
2022/08/05 13:59:50;;;;;;;1.08;0.98;;;33.40;32.30;;;;;;4880701;28;45690;-63
2022/08/05 14:02:15;;;;;;;0.70;0.70;;;33.40;32.30;;;;;;4878520;29;45558;-63
2022/08/05 14:07:28;;;;;;;1.20;0.90;;;33.40;32.20;;;;;;4878630;29;45294;-63
2022/08/05 14:09:54;;;;;;;1.42;0.98;;;33.40;32.30;;;;;;4879488;29;45186;-63
2022/08/05 14:12:19;;;;;;;3.72;1.05;;;33.40;32.10;;;;;;4880361;29;44719;-63
2022/08/05 14:14:45;;;;;;;1.90;0.90;;;33.40;32.10;;;;;;4880148;29;45286;-63
2022/08/05 14:17:10;;;;;;;1.05;0.90;;;33.40;32.10;;;;;;4878956;29;45314;-63
2022/08/05 14:19:36;;;;;;;1.10;1.00;;;33.50;32.20;;;;;;4879196;29;45426;-63
2022/08/05 14:22:02;;;;;;;1.08;1.00;;;33.50;32.30;;;;;;4878265;29;45473;-63
2022/08/05 14:24:28;;;;;;;1.80;1.10;;;33.50;32.10;;;;;;4878130;29;45977;-63
2022/08/05 14:26:53;;;;;;;1.60;1.00;;;33.50;32.00;;;;;;4875693;29;45004;-63
2022/08/05 14:29:19;;;;;;;1.42;0.90;;;33.50;32.00;;;;;;4877174;29;44985;-63
2022/08/05 14:31:44;;;;;;;5.45;1.17;;;33.50;31.90;;;;;;4877522;29;44724;-63
2022/08/05 14:34:10;;;;;;;1.33;0.90;;;33.60;31.90;;;;;;4874964;29;47321;-63
2022/08/05 14:36:35;;;;;;;1.75;1.13;;;33.60;31.70;;;;;;4880793;29;45439;-63
2022/08/05 14:39:01;;;;;;;1.77;1.10;;;33.60;31.90;;;;;;4877926;29;45205;-63
2022/08/05 14:41:27;;;;;;;1.45;1.10;;;33.60;32.00;;;;;;4880878;29;44760;-63
2022/08/05 14:43:54;;;;;;;1.35;1.08;;;33.60;32.10;;;;;;4878752;29;45713;-63
2022/08/05 14:46:20;;;;;;;1.35;0.90;;;33.60;32.10;;;;;;4879404;29;45012;-63
2022/08/05 14:48:46;;;;;;;1.27;1.17;;;33.60;31.90;;;;;;4880233;29;45205;-63
2022/08/05 14:51:11;;;;;;;0.90;0.90;;;33.60;31.90;;;;;;4880132;29;44758;-63
2022/08/05 14:53:37;;;;;;;1.42;1.00;;;33.60;31.80;;;;;;4880167;29;45936;-63
2022/08/05 14:56:03;;;;;;;1.45;0.90;;;33.60;31.60;;;;;;4880890;29;44764;-63
2022/08/05 14:58:28;;;;;;;1.15;1.02;;;33.60;31.60;;;;;;4879452;29;44667;-63
2022/08/05 15:00:54;;;;;;;1.17;1.08;;;33.60;31.60;;;;;;4879542;29;45359;-63
2022/08/05 15:03:19;;;;;;;1.13;1.00;;;33.60;31.60;;;;;;4878655;29;45432;-63
2022/08/05 15:05:45;;;;;;;0.93;0.80;;;33.60;31.60;;;;;;4876368;29;45550;-63
2022/08/05 15:08:10;;;;;;;1.92;1.20;;;33.60;31.60;;;;;;4879753;29;45264;-63
2022/08/05 15:10:36;;;;;;;2.80;1.20;;;33.70;31.70;;;;;;4876790;29;45589;-63
2022/08/05 15:13:03;;;;;;;1.48;1.00;;;33.70;31.60;;;;;;4877545;29;45204;-63
2022/08/05 15:15:29;;;;;;;1.23;1.02;;;33.70;31.60;;;;;;4880684;29;45220;-63
2022/08/05 15:17:54;;;;;;;0.73;0.73;;;33.70;31.60;;;;;;4875546;29;45380;-63
2022/08/05 15:20:20;;;;;;;1.80;1.05;;;33.70;31.50;;;;;;4874778;29;45822;-62
2022/08/05 15:22:47;;;;;;;1.10;1.00;;;33.70;31.50;;;;;;4875323;29;45658;-63
2022/08/05 15:25:12;;;;;;;0.82;0.80;;;33.70;31.60;;;;;;4878293;29;45302;-63
2022/08/05 15:27:38;;;;;;;2.65;0.90;;;33.70;31.60;;;;;;4878362;29;45807;-63
2022/08/05 15:30:04;;;;;;;1.02;0.88;;;33.70;32.20;;;;;;4878197;29;45591;-63
2022/08/05 15:32:29;;;;;;;2.22;0.80;;;33.70;31.50;;;;;;4876502;28;45230;-63
2022/08/05 15:34:55;;;;;;;1.17;1.00;;;33.80;31.50;;;;;;4878451;29;45570;-63
2022/08/05 15:37:21;;;;;;;1.15;0.82;;;33.80;31.40;;;;;;4879069;29;45166;-63
2022/08/05 15:39:47;;;;;;;1.20;0.90;;;33.80;31.40;;;;;;4878719;29;45114;-63
2022/08/05 15:42:14;;;;;;;1.00;0.90;;;33.80;31.40;;;;;;4880141;29;46332;-63
2022/08/05 15:44:40;;;;;;;1.25;1.15;;;33.80;31.40;;;;;;4879079;29;45685;-63
2022/08/05 15:47:06;;;;;;;2.80;1.00;;;33.80;31.50;;;;;;4860396;29;45456;-63
2022/08/05 15:49:31;;;;;;;3.33;1.23;;;33.80;31.50;;;;;;4878960;29;44845;-63
2022/08/05 15:51:57;;;;;;;1.70;1.10;;;33.80;31.50;;;;;;4877284;29;46268;-63
2022/08/05 15:54:22;;;;;;;1.55;1.10;;;33.80;31.50;;;;;;4876484;29;45514;-63
2022/08/05 15:56:48;;;;;;;2.28;1.00;;;33.80;31.50;;;;;;4879632;29;45481;-63
2022/08/05 15:59:14;;;;;;;1.70;1.20;;;33.80;31.50;;;;;;4876090;29;45379;-63